createdAt,value
2023-01-18T00:01:36.072Z,7.85
2023-01-18T00:04:05.080Z,7.07
2023-01-18T00:06:34.179Z,6.72
2023-01-18T00:09:02.857Z,7.13
2023-01-18T00:11:31.850Z,6.50
2023-01-18T00:14:03.616Z,6.70
2023-01-18T00:16:32.540Z,7.45
2023-01-18T00:19:03.642Z,6.93
2023-01-18T00:21:32.329Z,7.18
2023-01-18T00:24:01.211Z,6.82
2023-01-18T00:26:29.931Z,6.38
2023-01-18T00:29:01.517Z,6.57
2023-01-18T00:31:30.305Z,4.95
2023-01-18T00:33:59.132Z,5.40
2023-01-18T00:36:27.989Z,4.93
2023-01-18T00:38:56.720Z,5.47
2023-01-18T00:41:26.449Z,6.35
2023-01-18T00:43:55.574Z,5.18
2023-01-18T00:46:28.147Z,5.32
2023-01-18T00:48:59.649Z,6.13
2023-01-18T00:51:28.562Z,5.35
2023-01-18T00:53:57.416Z,5.13
2023-01-18T00:56:26.258Z,5.88
2023-01-18T00:58:54.998Z,6.00
2023-01-18T01:01:25.044Z,5.40
2023-01-18T01:04:12.097Z,6.47
2023-01-18T01:06:47.420Z,6.03
2023-01-18T01:09:25.934Z,6.53
2023-01-18T01:12:13.239Z,6.30
2023-01-18T01:15:05.034Z,6.28
2023-01-18T01:17:55.110Z,7.03
2023-01-18T01:20:44.259Z,5.97
2023-01-18T01:23:36.346Z,6.78
2023-01-18T01:26:07.131Z,6.80
2023-01-18T01:28:44.935Z,6.65
2023-01-18T01:31:15.678Z,7.20
2023-01-18T01:33:45.760Z,8.70
2023-01-18T01:36:17.178Z,7.78
2023-01-18T01:38:46.544Z,7.22
2023-01-18T01:41:20.973Z,6.80
2023-01-18T01:43:52.037Z,6.20
2023-01-18T01:46:40.520Z,7.35
2023-01-18T01:49:14.942Z,6.03
2023-01-18T01:51:47.367Z,7.15
2023-01-18T01:54:23.233Z,7.65
2023-01-18T01:56:53.734Z,6.97
2023-01-18T01:59:22.879Z,7.43
2023-01-18T02:01:51.744Z,7.45
2023-01-18T02:04:20.498Z,6.90
2023-01-18T02:06:48.944Z,8.35
2023-01-18T02:09:17.690Z,7.20
2023-01-18T02:11:46.209Z,7.75
2023-01-18T02:14:17.412Z,7.63
2023-01-18T02:17:05.692Z,7.85
2023-01-18T02:19:49.348Z,8.05
2023-01-18T02:22:56.486Z,7.72
2023-01-18T02:25:35.873Z,7.43
2023-01-18T02:28:17.768Z,7.50
2023-01-18T02:30:59.087Z,8.00
2023-01-18T02:33:51.470Z,7.25
2023-01-18T02:36:32.612Z,7.28
2023-01-18T02:39:24.016Z,8.00
2023-01-18T02:42:23.633Z,9.32
2023-01-18T02:45:10.918Z,9.80
2023-01-18T02:47:39.814Z,9.73
2023-01-18T02:50:08.972Z,10.98
2023-01-18T02:52:48.303Z,9.80
2023-01-18T02:55:28.943Z,8.52
2023-01-18T02:58:03.713Z,8.00
2023-01-18T03:00:35.657Z,7.65
2023-01-18T03:03:07.052Z,8.85
2023-01-18T03:05:37.837Z,8.18
2023-01-18T03:08:19.312Z,8.27
2023-01-18T03:11:11.564Z,8.68
2023-01-18T03:14:02.481Z,7.88
2023-01-18T03:16:40.694Z,7.88
2023-01-18T03:19:41.974Z,8.20
2023-01-18T03:22:11.801Z,6.90
2023-01-18T03:24:41.934Z,6.38
2023-01-18T03:27:30.074Z,7.38
2023-01-18T03:30:16.941Z,6.53
2023-01-18T03:33:04.398Z,7.07
2023-01-18T03:35:34.017Z,6.65
2023-01-18T03:38:02.834Z,5.47
2023-01-18T03:40:32.216Z,6.80
2023-01-18T03:43:15.760Z,7.03
2023-01-18T03:45:49.049Z,6.07
2023-01-18T03:48:18.235Z,6.57
2023-01-18T03:51:14.246Z,7.40
2023-01-18T03:54:10.127Z,6.85
2023-01-18T03:56:57.772Z,9.63
2023-01-18T03:59:31.304Z,8.02
2023-01-18T04:02:00.245Z,8.10
2023-01-18T04:04:28.839Z,6.97
2023-01-18T04:06:58.795Z,8.68
2023-01-18T04:09:28.174Z,8.68
2023-01-18T04:11:56.783Z,8.10
2023-01-18T04:14:25.599Z,7.95
2023-01-18T04:16:54.275Z,8.25
2023-01-18T04:19:22.812Z,7.85
2023-01-18T04:21:54.326Z,7.38
2023-01-18T04:24:22.825Z,7.68
2023-01-18T04:26:51.578Z,8.65
2023-01-18T04:29:20.206Z,8.35
2023-01-18T04:31:48.856Z,8.23
2023-01-18T04:34:17.715Z,7.13
2023-01-18T04:36:46.223Z,7.07
2023-01-18T04:39:15.095Z,6.18
2023-01-18T04:41:43.785Z,7.25
2023-01-18T04:44:13.659Z,6.22
2023-01-18T04:46:42.441Z,7.35
2023-01-18T04:49:16.219Z,6.60
2023-01-18T04:51:46.769Z,6.15
2023-01-18T04:54:17.757Z,5.75
2023-01-18T04:56:46.437Z,6.20
2023-01-18T04:59:16.901Z,5.40
2023-01-18T05:01:45.769Z,5.90
2023-01-18T05:04:14.459Z,5.78
2023-01-18T05:06:42.953Z,5.70
2023-01-18T05:09:13.289Z,5.05
2023-01-18T05:11:42.864Z,5.50
2023-01-18T05:14:11.459Z,5.88
2023-01-18T05:16:40.089Z,6.60
2023-01-18T05:19:09.981Z,6.95
2023-01-18T05:21:38.577Z,6.18
2023-01-18T05:24:07.601Z,6.10
2023-01-18T05:26:37.357Z,7.00
2023-01-18T05:29:06.015Z,6.18
2023-01-18T05:31:34.655Z,6.75
2023-01-18T05:34:03.539Z,6.18
2023-01-18T05:36:32.336Z,7.82
2023-01-18T05:39:00.886Z,6.65
2023-01-18T05:41:29.597Z,8.93
2023-01-18T05:43:58.335Z,8.40
2023-01-18T05:46:27.085Z,8.27
2023-01-18T05:48:59.783Z,7.88
2023-01-18T05:51:28.659Z,7.75
2023-01-18T05:53:57.297Z,7.95
2023-01-18T05:56:26.035Z,6.72
2023-01-18T05:58:54.806Z,7.13
2023-01-18T06:01:23.409Z,6.97
2023-01-18T06:03:52.075Z,7.53
2023-01-18T06:06:21.017Z,7.60
2023-01-18T06:08:49.576Z,7.75
2023-01-18T06:11:20.647Z,8.88
2023-01-18T06:13:49.597Z,7.65
2023-01-18T06:16:18.273Z,7.03
2023-01-18T06:18:47.110Z,6.72
2023-01-18T06:21:15.919Z,8.18
2023-01-18T06:23:44.629Z,6.88
2023-01-18T06:26:13.120Z,7.05
2023-01-18T06:28:42.183Z,8.55
2023-01-18T06:31:12.155Z,8.40
2023-01-18T06:33:40.912Z,7.40
2023-01-18T06:36:10.945Z,8.13
2023-01-18T06:38:39.704Z,8.80
2023-01-18T06:41:10.014Z,7.70
2023-01-18T06:43:38.703Z,7.70
2023-01-18T06:46:10.400Z,7.88
2023-01-18T06:48:41.617Z,8.00
2023-01-18T06:51:10.370Z,8.75
2023-01-18T06:53:39.512Z,7.57
2023-01-18T06:56:11.087Z,9.55
2023-01-18T06:58:39.942Z,9.10
2023-01-18T07:01:09.108Z,8.68
2023-01-18T07:03:39.520Z,10.10
2023-01-18T07:06:08.357Z,9.10
2023-01-18T07:08:36.736Z,8.80
2023-01-18T07:11:08.071Z,9.93
2023-01-18T07:13:40.619Z,9.05
2023-01-18T07:16:12.395Z,9.05
2023-01-18T07:18:44.678Z,9.82
2023-01-18T07:21:15.258Z,9.48
2023-01-18T07:23:44.537Z,9.75
2023-01-18T07:26:17.857Z,8.80
2023-01-18T07:28:47.901Z,10.05
2023-01-18T07:31:17.815Z,9.80
2023-01-18T07:33:46.496Z,9.10
2023-01-18T07:36:15.096Z,10.05
2023-01-18T07:38:43.856Z,9.70
2023-01-18T07:41:15.665Z,9.65
2023-01-18T07:43:46.619Z,10.18
2023-01-18T07:46:22.729Z,10.23
2023-01-18T07:48:54.419Z,10.75
2023-01-18T07:51:23.887Z,9.82
2023-01-18T07:53:56.011Z,11.13
2023-01-18T07:56:26.596Z,10.27
2023-01-18T07:58:56.496Z,10.80
2023-01-18T08:01:25.585Z,10.05
2023-01-18T08:03:55.451Z,10.65
2023-01-18T08:06:26.047Z,12.77
2023-01-18T08:08:57.821Z,10.98
2023-01-18T08:11:27.186Z,15.35
2023-01-18T08:13:55.944Z,11.63
2023-01-18T08:16:25.205Z,44.08
2023-01-18T08:18:55.310Z,12.68
2023-01-18T08:21:24.163Z,13.32
2023-01-18T08:23:55.991Z,36.35
2023-01-18T08:26:24.549Z,12.75
2023-01-18T08:28:53.311Z,12.20
2023-01-18T08:31:23.177Z,12.65
2023-01-18T08:33:51.764Z,15.23
2023-01-18T08:36:23.236Z,12.57
2023-01-18T08:38:53.786Z,11.20
2023-01-18T08:41:24.716Z,12.10
2023-01-18T08:43:53.535Z,11.65
2023-01-18T08:46:23.068Z,11.82
2023-01-18T08:48:56.941Z,11.23
2023-01-18T08:51:28.103Z,11.15
2023-01-18T08:53:57.898Z,11.25
2023-01-18T08:56:27.336Z,10.57
2023-01-18T08:58:56.625Z,10.38
2023-01-18T09:01:27.331Z,8.77
2023-01-18T09:03:56.935Z,9.45
2023-01-18T09:06:26.575Z,8.68
2023-01-18T09:08:55.377Z,9.07
2023-01-18T09:11:23.942Z,8.93
2023-01-18T09:14:01.231Z,8.20
2023-01-18T09:16:32.046Z,8.45
2023-01-18T09:19:00.801Z,8.32
2023-01-18T09:21:29.577Z,8.40
2023-01-18T09:24:00.002Z,8.02
2023-01-18T09:26:29.717Z,8.32
2023-01-18T09:28:58.324Z,8.07
2023-01-18T09:31:29.593Z,8.35
2023-01-18T09:34:17.428Z,8.18
2023-01-18T09:36:50.158Z,8.18
2023-01-18T09:39:20.705Z,7.40
2023-01-18T09:41:59.163Z,6.93
2023-01-18T09:44:39.583Z,6.57
2023-01-18T09:47:14.415Z,6.85
2023-01-18T09:49:57.056Z,5.70
2023-01-18T09:52:50.164Z,6.20
2023-01-18T09:55:39.006Z,6.13
2023-01-18T09:58:19.976Z,6.25
2023-01-18T10:00:50.282Z,5.78
2023-01-18T10:03:21.021Z,5.85
2023-01-18T10:06:16.680Z,5.90
2023-01-18T10:08:55.199Z,5.95
2023-01-18T10:11:34.776Z,5.50
2023-01-18T10:14:16.196Z,5.18
2023-01-18T10:16:49.245Z,4.53
2023-01-18T10:19:25.956Z,5.10
2023-01-18T10:22:07.682Z,5.28
2023-01-18T10:24:39.255Z,5.20
2023-01-18T10:27:36.664Z,5.68
2023-01-18T10:30:23.181Z,5.63
2023-01-18T10:32:59.957Z,5.13
2023-01-18T10:35:39.377Z,5.22
2023-01-18T10:38:16.038Z,5.35
2023-01-18T10:40:51.183Z,4.63
2023-01-18T10:43:25.745Z,4.88
2023-01-18T10:45:55.327Z,5.75
2023-01-18T10:48:33.239Z,5.43
2023-01-18T10:51:07.440Z,4.97
2023-01-18T10:53:39.219Z,5.05
2023-01-18T10:56:10.956Z,4.65
2023-01-18T10:58:44.827Z,4.75
2023-01-18T11:01:44.107Z,4.72
2023-01-18T11:04:26.320Z,4.88
2023-01-18T11:07:01.767Z,4.63
2023-01-18T11:09:56.267Z,5.68
2023-01-18T11:12:45.077Z,5.25
2023-01-18T11:15:16.833Z,5.10
2023-01-18T11:17:58.121Z,4.80
2023-01-18T11:20:37.678Z,5.05
2023-01-18T11:23:14.899Z,4.78
2023-01-18T11:26:13.704Z,5.30
2023-01-18T11:29:06.281Z,5.90
2023-01-18T11:31:48.032Z,4.55
2023-01-18T11:34:32.675Z,6.63
2023-01-18T11:37:02.588Z,6.93
2023-01-18T11:39:35.366Z,7.65
2023-01-18T11:42:14.901Z,8.07
2023-01-18T11:45:05.499Z,7.13
2023-01-18T11:47:58.026Z,7.55
2023-01-18T11:50:47.472Z,7.38
2023-01-18T11:53:57.438Z,8.60
2023-01-18T11:56:26.247Z,8.82
2023-01-18T11:58:56.463Z,7.88
2023-01-18T12:01:44.397Z,8.88
2023-01-18T12:04:46.870Z,9.27
2023-01-18T12:07:22.670Z,7.05
2023-01-18T12:09:56.923Z,8.52
2023-01-18T12:15:25.995Z,8.23
2023-01-18T12:18:13.219Z,6.90
2023-01-18T12:20:54.673Z,8.13
2023-01-18T12:23:26.312Z,7.80
2023-01-18T12:26:12.136Z,7.57
2023-01-18T12:29:07.900Z,6.05
2023-01-18T12:31:59.691Z,6.88
2023-01-18T12:34:59.792Z,6.82
2023-01-18T12:38:13.651Z,6.95
2023-01-18T12:40:59.093Z,7.03
2023-01-18T12:43:51.957Z,6.95
2023-01-18T12:46:33.246Z,5.80
2023-01-18T12:49:19.747Z,6.38
2023-01-18T12:52:13.014Z,5.80
2023-01-18T12:54:56.335Z,6.57
2023-01-18T12:57:26.538Z,6.05
2023-01-18T13:00:21.005Z,6.18
2023-01-18T13:05:36.082Z,5.45
2023-01-18T13:08:27.449Z,4.93
2023-01-18T13:11:21.775Z,5.88
2023-01-18T13:13:59.098Z,6.35
2023-01-18T13:16:51.376Z,5.75
2023-01-18T13:19:30.817Z,5.82
2023-01-18T13:22:46.032Z,6.50
2023-01-18T13:25:25.123Z,6.30
2023-01-18T13:28:15.075Z,8.18
2023-01-18T13:30:57.253Z,6.40
2023-01-18T13:33:30.646Z,7.00
2023-01-18T13:36:13.195Z,8.45
2023-01-18T13:38:52.832Z,7.97
2023-01-18T13:41:28.641Z,7.47
2023-01-18T13:44:02.734Z,7.28
2023-01-18T13:49:36.310Z,6.90
2023-01-18T13:52:31.595Z,6.15
2023-01-18T13:55:20.174Z,5.85
2023-01-18T13:57:56.515Z,7.18
2023-01-18T14:00:28.060Z,7.78
2023-01-18T14:03:17.281Z,6.75
2023-01-18T14:05:49.414Z,9.45
2023-01-18T14:08:33.784Z,8.10
2023-01-18T14:11:28.478Z,7.65
2023-01-18T14:14:01.797Z,6.93
2023-01-18T14:16:41.857Z,6.63
2023-01-18T14:19:23.759Z,6.57
2023-01-18T14:22:19.264Z,6.65
2023-01-18T14:25:03.432Z,5.20
2023-01-18T14:27:41.770Z,6.55
2023-01-18T14:30:19.691Z,4.65
2023-01-18T14:33:06.051Z,5.88
2023-01-18T14:35:37.594Z,6.43
2023-01-18T14:38:18.556Z,4.67
2023-01-18T14:40:52.188Z,6.63
2023-01-18T14:43:43.095Z,6.18
2023-01-18T14:46:33.638Z,5.82
2023-01-18T14:49:02.532Z,6.60
2023-01-18T14:51:31.596Z,5.50
2023-01-18T14:54:02.811Z,6.05
2023-01-18T14:56:35.791Z,6.70
2023-01-18T14:59:19.136Z,8.15
2023-01-18T15:02:18.521Z,13.70
2023-01-18T15:04:48.249Z,6.60
2023-01-18T15:07:34.648Z,8.18
2023-01-18T15:10:04.429Z,8.93
2023-01-18T15:12:34.257Z,7.20
2023-01-18T15:15:10.428Z,9.50
2023-01-18T15:17:39.381Z,6.60
2023-01-18T15:20:15.307Z,10.98
2023-01-18T15:22:44.610Z,10.32
2023-01-18T15:25:28.334Z,11.50
2023-01-18T15:28:06.441Z,10.63
2023-01-18T15:30:40.607Z,11.23
2023-01-18T15:33:10.950Z,12.02
2023-01-18T15:35:40.517Z,11.15
2023-01-18T15:38:12.120Z,9.55
2023-01-18T15:40:53.944Z,9.77
2023-01-18T15:43:31.682Z,7.93
2023-01-18T15:46:01.806Z,9.65
2023-01-18T15:48:38.078Z,7.50
2023-01-18T15:51:09.818Z,4.97
2023-01-18T15:53:53.365Z,8.05
2023-01-18T15:56:31.167Z,9.90
2023-01-18T15:59:03.063Z,9.70
2023-01-18T16:01:36.605Z,13.60
2023-01-18T16:04:22.599Z,9.18
2023-01-18T16:06:51.269Z,13.82
2023-01-18T16:09:23.938Z,12.05
2023-01-18T16:11:54.916Z,12.40
2023-01-18T16:14:35.261Z,13.63
2023-01-18T16:17:05.276Z,14.25
2023-01-18T16:19:36.941Z,13.75
2023-01-18T16:22:18.303Z,14.13
2023-01-18T16:24:52.644Z,13.00
2023-01-18T16:27:24.489Z,11.90
2023-01-18T16:30:23.545Z,11.77
2023-01-18T16:32:52.787Z,11.20
2023-01-18T16:35:24.060Z,12.05
2023-01-18T16:37:52.875Z,11.27
2023-01-18T16:40:23.642Z,10.48
2023-01-18T16:43:05.880Z,11.07
2023-01-18T16:45:38.724Z,8.68
2023-01-18T16:48:10.668Z,8.75
2023-01-18T16:50:39.401Z,7.03
2023-01-18T16:53:08.205Z,7.93
2023-01-18T16:55:37.608Z,7.75
2023-01-18T16:58:06.351Z,6.80
2023-01-18T17:01:06.578Z,7.13
2023-01-18T17:03:36.778Z,5.78
2023-01-18T17:06:05.468Z,4.72
2023-01-18T17:08:35.572Z,4.15
2023-01-18T17:11:05.828Z,4.72
2023-01-18T17:13:35.169Z,4.40
2023-01-18T17:16:04.230Z,5.70
2023-01-18T17:18:32.847Z,5.20
2023-01-18T17:21:01.670Z,7.07
2023-01-18T17:23:30.265Z,5.93
2023-01-18T17:26:00.304Z,6.00
2023-01-18T17:28:31.164Z,7.55
2023-01-18T17:30:59.595Z,8.88
2023-01-18T17:33:28.511Z,8.27
2023-01-18T17:35:57.234Z,8.65
2023-01-18T17:38:29.247Z,5.47
2023-01-18T17:40:59.031Z,7.77
2023-01-18T17:43:33.771Z,6.80
2023-01-18T17:46:06.867Z,7.13
2023-01-18T17:48:35.644Z,7.30
2023-01-18T17:51:08.991Z,6.90
2023-01-18T17:53:39.152Z,9.53
2023-01-18T17:56:19.174Z,9.25
2023-01-18T17:58:52.853Z,9.57
2023-01-18T18:01:22.061Z,8.65
2023-01-18T18:03:53.097Z,7.65
2023-01-18T18:06:31.017Z,9.40
2023-01-18T18:09:03.809Z,8.80
2023-01-18T18:11:32.526Z,9.80
2023-01-18T18:14:02.337Z,10.52
2023-01-18T18:16:32.831Z,7.55
2023-01-18T18:19:03.071Z,7.25
2023-01-18T18:21:31.677Z,9.48
2023-01-18T18:24:00.313Z,10.18
2023-01-18T18:26:29.072Z,8.60
2023-01-18T18:28:57.921Z,8.88
2023-01-18T18:31:26.619Z,8.50
2023-01-18T18:33:55.388Z,7.75
2023-01-18T18:36:27.976Z,8.57
2023-01-18T18:39:02.189Z,7.40
2023-01-18T18:41:31.021Z,8.02
2023-01-18T18:43:59.811Z,9.20
2023-01-18T18:46:28.898Z,9.02
2023-01-18T18:48:58.191Z,10.48
2023-01-18T18:51:27.040Z,9.73
2023-01-18T18:53:55.640Z,10.27
2023-01-18T18:56:24.691Z,10.15
2023-01-18T18:58:53.210Z,10.82
2023-01-18T19:01:25.113Z,10.45
2023-01-18T19:03:54.819Z,10.75
2023-01-18T19:06:25.982Z,11.43
2023-01-18T19:08:54.840Z,10.75
2023-01-18T19:11:23.821Z,10.20
2023-01-18T19:13:54.653Z,9.60
2023-01-18T19:16:23.734Z,9.55
2023-01-18T19:18:52.691Z,10.35
2023-01-18T19:21:21.315Z,9.10
2023-01-18T19:23:50.132Z,9.95
2023-01-18T19:26:18.908Z,10.02
2023-01-18T19:28:48.086Z,7.93
2023-01-18T19:31:17.101Z,9.90
2023-01-18T19:33:45.856Z,9.30
2023-01-18T19:36:16.867Z,9.38
2023-01-18T19:38:52.581Z,8.38
2023-01-18T19:41:26.801Z,3.97
2023-01-18T19:43:55.573Z,6.43
2023-01-18T19:46:24.293Z,7.25
2023-01-18T19:49:00.314Z,5.32
2023-01-18T19:51:29.500Z,6.85
2023-01-18T19:54:01.869Z,6.70
2023-01-18T19:56:31.213Z,5.65
2023-01-18T19:58:59.847Z,6.20
2023-01-18T20:01:36.397Z,5.00
2023-01-18T20:04:08.780Z,5.63
2023-01-18T20:06:40.883Z,5.20
2023-01-18T20:09:19.043Z,4.93
2023-01-18T20:11:49.739Z,4.10
2023-01-18T20:14:19.148Z,4.55
2023-01-18T20:16:48.688Z,4.85
2023-01-18T20:19:18.507Z,5.28
2023-01-18T20:21:47.452Z,4.97
2023-01-18T20:24:17.273Z,5.22
2023-01-18T20:26:45.988Z,4.03
2023-01-18T20:29:14.598Z,5.65
2023-01-18T20:31:49.584Z,6.97
2023-01-18T20:34:18.732Z,5.65
2023-01-18T20:36:50.828Z,3.42
2023-01-18T20:39:20.788Z,4.68
2023-01-18T20:41:50.968Z,5.30
2023-01-18T20:44:19.927Z,4.63
2023-01-18T20:46:49.329Z,4.15
2023-01-18T20:49:22.464Z,5.05
2023-01-18T20:51:56.096Z,3.88
2023-01-18T20:54:24.850Z,4.90
2023-01-18T20:56:53.806Z,4.85
2023-01-18T20:59:22.610Z,3.97
2023-01-18T21:01:51.487Z,4.45
2023-01-18T21:04:22.804Z,4.15
2023-01-18T21:06:51.453Z,3.90
2023-01-18T21:09:20.428Z,4.00
2023-01-18T21:11:49.067Z,2.95
2023-01-18T21:14:17.769Z,4.03
2023-01-18T21:16:46.797Z,3.20
2023-01-18T21:19:15.581Z,4.18
2023-01-18T21:21:45.451Z,4.30
2023-01-18T21:24:14.391Z,4.18
2023-01-18T21:26:43.348Z,4.13
2023-01-18T21:29:12.091Z,2.67
2023-01-18T21:31:44.006Z,3.53
2023-01-18T21:34:12.831Z,4.05
2023-01-18T21:36:41.650Z,4.50
2023-01-18T21:39:19.219Z,4.43
2023-01-18T21:42:06.463Z,4.45
2023-01-18T21:44:54.068Z,5.20
2023-01-18T21:47:23.609Z,4.50
2023-01-18T21:50:17.467Z,4.95
2023-01-18T21:53:04.708Z,4.57
2023-01-18T21:55:33.797Z,4.55
2023-01-18T21:58:20.629Z,4.13
2023-01-18T22:00:49.454Z,6.03
2023-01-18T22:03:19.188Z,4.38
2023-01-18T22:05:48.693Z,5.40
2023-01-18T22:08:17.333Z,4.20
2023-01-18T22:10:49.167Z,4.30
2023-01-18T22:13:17.827Z,3.28
2023-01-18T22:15:47.793Z,3.35
2023-01-18T22:18:16.685Z,3.13
2023-01-18T22:20:45.347Z,3.58
2023-01-18T22:23:14.088Z,3.65
2023-01-18T22:25:42.947Z,2.75
2023-01-18T22:28:11.749Z,3.85
2023-01-18T22:30:41.539Z,2.50
2023-01-18T22:33:10.267Z,3.03
2023-01-18T22:35:39.073Z,2.97
2023-01-18T22:38:10.449Z,3.17
2023-01-18T22:40:39.529Z,3.63
2023-01-18T22:43:10.830Z,3.45
2023-01-18T22:45:39.573Z,3.10
2023-01-18T22:48:08.491Z,3.92
2023-01-18T22:50:37.080Z,3.70
2023-01-18T22:53:06.610Z,3.75
2023-01-18T22:55:35.523Z,4.10
2023-01-18T22:58:04.510Z,5.32
2023-01-18T23:00:33.358Z,5.03
2023-01-18T23:03:02.128Z,3.78
2023-01-18T23:05:31.140Z,4.72
2023-01-18T23:07:59.968Z,5.25
2023-01-18T23:10:28.950Z,4.80
2023-01-18T23:12:57.736Z,5.10
2023-01-18T23:15:44.637Z,4.63
2023-01-18T23:18:13.735Z,3.88
2023-01-18T23:20:42.679Z,4.03
2023-01-18T23:23:11.493Z,3.65
2023-01-18T23:25:40.390Z,4.40
2023-01-18T23:28:09.030Z,4.75
2023-01-18T23:30:37.606Z,5.07
2023-01-18T23:33:06.407Z,5.38
2023-01-18T23:35:35.080Z,5.93
2023-01-18T23:38:07.154Z,5.28
2023-01-18T23:40:55.687Z,6.03
2023-01-18T23:43:42.645Z,6.00
2023-01-18T23:46:29.904Z,6.32
2023-01-18T23:49:16.610Z,6.38
2023-01-18T23:52:03.652Z,6.00
2023-01-18T23:54:32.292Z,6.65
2023-01-18T23:57:01.308Z,7.10
2023-01-18T23:59:30.332Z,6.50
